Flight Number: EUR2439 Duration: 6:00
Departure: Dubai Int'l (OMDB) at 08:00 Distance: 2463 Nm
Arrival: Munich Int'l (EDDM) at 14:00 Equipment: B777

Weather Information
Dubai International Airport, United Arab Emirates (OMDB) 25-15N 055-20E 5M Oct 19, 2018 - 01:00 PM EDT / 2018.10.19 1700 UTC
Wind: from the NE (040 degrees) at 6 MPH (5 KT) (direction variable):0
Visibility: greater than 7 mile(s):0 Temperature: 87 F (31 C) Heat index: 92.3 F (33.5 C):1 Dew Point: 71 F (22 C) Relative Humidity: 58% Pressure (altimeter): 29.94 in. Hg (1014 hPa)
ob: OMDB 191700Z 04005KT 020V090 CAVOK 31/22 Q1014 NOSIG cycle: 17
Sunrise: 02:21 Sunset: 13:45 (UTC)

Munchen, Germany (EDDM) 48-21N 011-47E Oct 19, 2018 - 01:50 PM EDT / 2018.10.19 1750 UTC
Wind: from the N (360 degrees) at 2 MPH (2 KT):0
Visibility: 5 mile(s):0 Temperature: 48 F (9 C) Dew Point: 46 F (8 C) Relative Humidity: 93% Pressure (altimeter): 30.21 in. Hg (1023 hPa)
ob: EDDM 191750Z 36002KT 9000 NSC 09/08 Q1023 NOSIG cycle: 18
Sunrise: 05:42 Sunset: 16:12 (UTC)

TAF:2018/10/19 18:44 TAF EDDM 191700Z 1918/2024 VRB02KT 8000 NSC BECMG 1921/1924 2000 BCFG PROB30 TEMPO 2001/2009 0700 FG BECMG 2009/2011 7000 BKN013 BECMG 2011/2013 34006KT SCT013 BECMG 2016/2018 VRB03KT PROB30 TEMPO 2022/2024 3000 BCFG

Previous Pireps for this route
Date Aircraft Flight time Fuel used Landing rate On time
2012-08-14A3405.35703870Yes
2012-11-02A34006.44112308-462No
2013-01-23A3405.3067954.70Yes
2013-01-29A3405.3063527.80Yes
2015-07-02B7776.231057580Charter
2016-02-29B77706.261211060Yes
2016-03-13B7776,30111918-312No
2016-10-07B77706.08100062-207Yes
2016-10-16B77706.07120485-347No
2016-11-01B77706.09130278-469Yes
(pireps marked green are flown by you)

Route map